• Join FlightAware (Why Join?)
  • Login
  • US Flag GB Flag 
20:25 EDT


 

Airport Tracker/Info


-or-


 

Live Flight TrackerFlight Track Log ✈ DAL268 ✈ 18-Sep-2013 ✈ KJFK - LLBG / TLV

Flight Track Log - Related Links

Times and Time Zones

All times are in EDT time to prevent confusion due to time zone crossing. See the DAL268 flight status page for this flight to view local times or setup timezone preferences in your user account.

Time Position Orientation Groundspeed Altitude Reporting Facility
EDT Latitude Longitude Course Direction KTS MPH feet Rate Location/Type
21:29 40.6500 -73.7670 37° Northeast  Level FlightAware
21:32 40.9393 -73.5000 North  Level FlightAware Approximate
21:33 41.0538 -73.3990 30° Northeast  Level FlightAware Approximate
21:34 41.1766 -73.3067 37° Northeast  Level FlightAware Approximate
21:37 40.6450 -73.7670 201° Southwest 70 81  Level FlightAware
21:37 40.6350 -73.7750 211° Southwest 140 161 360 Level FlightAware
21:37 40.6210 -73.7870 213° Southwest 164 189 300 1,260 Climbing FlightAware
21:38 40.6080 -73.7960 208° Southwest 166 191 900 1,560 Climbing FlightAware
21:38 40.5950 -73.8050 208° Southwest 180 207 1,300 1,200 Climbing FlightAware
21:38 40.5850 -73.8110 204° Southwest 192 221 1,500 1,200 Climbing FlightAware
21:38 40.5780 -73.8120 186° South 199 229 1,700 840 Climbing FlightAware
21:39 40.5640 -73.8070 165° South 217 250 1,900 660 Climbing FlightAware
21:39 40.5570 -73.8020 152° Southeast 229 264 2,000 1,200 Climbing FlightAware
21:39 40.5480 -73.7900 135° Southeast 239 275 2,200 1,260 Climbing FlightAware
21:39 40.5470 -73.7870 114° Southeast 245 282 2,300 1,080 Climbing FlightAware
21:39 40.5440 -73.7790 116° Southeast 251 289 2,400 1,560 Climbing FlightAware
21:39 40.5400 -73.7610 106° East 258 297 2,700 1,680 Climbing FlightAware
21:39 40.5400 -73.7520 90° East 265 305 2,800 1,320 Climbing FlightAware
21:40 40.5470 -73.7200 74° East 281 323 3,300 1,500 Climbing FlightAware
21:40 40.5560 -73.7050 52° Northeast 288 331 3,600 1,860 Climbing FlightAware
21:40 40.5680 -73.6900 44° Northeast 298 343 4,000 2,520 Climbing FlightAware
21:40 40.5840 -73.6750 35° Northeast 300 345 4,700 3,120 Climbing FlightAware
21:41 40.6070 -73.6540 35° Northeast 297 342 5,800 2,700 Climbing FlightAware
21:41 40.6300 -73.6330 35° Northeast 310 357 6,500 2,820 Climbing FlightAware
21:41 40.6580 -73.6060 36° Northeast 305 351 7,800 3,240 Climbing FlightAware
21:42 40.6710 -73.5930 37° Northeast 304 350 8,400 2,280 Climbing FlightAware
21:42 40.6950 -73.5690 37° Northeast 310 357 9,100 1,740 Climbing FlightAware
21:42 40.7240 -73.5470 30° Northeast 329 379 9,700 1,740 Climbing FlightAware
21:43 40.7750 -73.5140 26° Northeast 346 398 10,800 1,740 Climbing FlightAware
21:44 40.8300 -73.4800 25° Northeast 367 422 11,900 1,500 Climbing FlightAware
21:44 40.8810 -73.4490 25° Northeast 389 448 12,600 1,620 Climbing FlightAware
21:45 40.9370 -73.4130 26° Northeast 403 464 13,700 1,980 Climbing FlightAware
21:45 41.0050 -73.3720 24° Northeast 412 474 15,000 1,920 Climbing FlightAware
21:46 41.0660 -73.3340 25° Northeast 422 486 16,100 1,920 Climbing FlightAware
21:46 41.1250 -73.2970 25° Northeast 429 494 17,200 1,800 Climbing FlightAware
21:47 41.1920 -73.2570 24° Northeast 438 504 18,200 1,680 Climbing FlightAware
21:48 41.2600 -73.2140 25° Northeast 445 512 19,300 1,680 Climbing FlightAware
21:48 41.3240 -73.1740 25° Northeast 451 519 20,200 1,500 Climbing FlightAware
21:49 41.3680 -73.1410 29° Northeast 455 524 20,800 1,560 Climbing FlightAware
21:49 41.3940 -73.1060 45° Northeast 457 526 21,300 1,560 Climbing FlightAware
21:49 41.4090 -73.0780 54° Northeast 458 527 21,600 1,320 Climbing FlightAware
21:50 41.4460 -72.9950 59° Northeast 463 533 22,400 1,440 Climbing FlightAware
21:50 41.4840 -72.9080 60° Northeast 469 540 23,300 1,380 Climbing FlightAware
21:51 41.5260 -72.8120 60° Northeast 475 547 24,100 1,260 Climbing FlightAware
21:52 41.5660 -72.7200 60° Northeast 481 554 24,900 1,320 Climbing FlightAware
21:52 41.6020 -72.6380 60° Northeast 486 559 25,600 1,260 Climbing FlightAware
21:53 41.6420 -72.5460 60° Northeast 492 566 26,300 1,080 Climbing FlightAware
21:53 41.6830 -72.4540 59° Northeast 497 572 26,900 960 Climbing FlightAware
21:54 41.7160 -72.3950 53° Northeast 502 578 27,300 1,020 Climbing FlightAware
21:54 41.7680 -72.3220 46° Northeast 505 581 27,900 1,140 Climbing FlightAware
21:55 41.8230 -72.2400 48° Northeast 507 583 28,600 1,260 Climbing FlightAware
21:55 41.8760 -72.1600 48° Northeast 503 579 29,400 1,380 Climbing FlightAware
21:56 41.9320 -72.0700 50° Northeast 501 577 30,300 1,260 Climbing FlightAware
21:57 41.9830 -71.9890 50° Northeast 501 577 30,900 600 Climbing FlightAware
21:57 42.0320 -71.9100 50° Northeast 501 577 31,000 60 Climbing FlightAware
21:58 42.0910 -71.8210 48° Northeast 500 575 31,000  Level FlightAware
21:58 42.1370 -71.7490 49° Northeast 500 575 31,000  Level FlightAware
21:59 42.1970 -71.6570 49° Northeast 499 574 31,000  Level FlightAware
21:59 42.2470 -71.5800 49° Northeast 499 574 31,000  Level FlightAware
22:00 42.3020 -71.4950 49° Northeast 501 577 31,000  Level FlightAware
22:01 42.3590 -71.4080 48° Northeast 501 577 31,000  Level FlightAware
22:01 42.4080 -71.3300 50° Northeast 501 577 31,000  Level FlightAware
22:02 42.4630 -71.2440 49° Northeast 502 578 31,000  Level FlightAware
22:02 42.5170 -71.1610 49° Northeast 504 580 31,000  Level FlightAware
22:03 42.5650 -71.0840 50° Northeast 506 582 31,000  Level FlightAware
22:04 42.6210 -70.9950 49° Northeast 506 582 31,000  Level FlightAware
22:04 42.6700 -70.9200 48° Northeast 507 583 31,000  Level FlightAware
22:05 42.7280 -70.8280 49° Northeast 507 583 31,000  Level FlightAware
22:05 42.7840 -70.7390 49° Northeast 507 583 31,000  Level FlightAware
22:06 42.8390 -70.6510 50° Northeast 507 583 31,000  Level FlightAware
22:06 42.8900 -70.5690 50° Northeast 507 583 31,000  Level FlightAware
22:07 42.9430 -70.4830 50° Northeast 507 583 31,000  Level FlightAware
22:08 42.9960 -70.4000 49° Northeast 507 583 31,000  Level FlightAware
22:08 43.0490 -70.3150 50° Northeast 507 583 31,000  Level FlightAware
22:09 43.1010 -70.2290 50° Northeast 508 585 31,000  Level FlightAware
22:09 43.1550 -70.1430 49° Northeast 508 585 31,000  Level FlightAware
22:10 43.2110 -70.0520 50° Northeast 503 579 31,000  Level FlightAware
22:11 43.2600 -69.9700 51° Northeast 506 582 31,000  Level FlightAware
22:11 43.3150 -69.8810 50° Northeast 506 582 31,000  Level FlightAware
22:12 43.3780 -69.7780 50° Northeast 506 582 31,000  Level FlightAware
22:12 43.4280 -69.6940 51° Northeast 505 581 31,000  Level FlightAware
22:13 43.4840 -69.6030 50° Northeast 506 582 31,000  Level FlightAware
22:14 43.5360 -69.5190 49° Northeast 506 582 31,000  Level FlightAware
22:14 43.5990 -69.4120 51° Northeast 506 582 31,000  Level FlightAware
22:15 43.6740 -69.2870 50° Northeast 506 582 31,000  Level FlightAware
22:16 43.7370 -69.1830 50° Northeast 506 582 31,000  Level FlightAware
22:17 43.7830 -69.1070 50° Northeast 506 582 31,000  Level FlightAware
22:17 43.8290 -69.0310 50° Northeast 506 582 31,000  Level FlightAware
22:18 43.8750 -68.9550 50° Northeast 506 582 31,000  Level FlightAware
22:18 43.9220 -68.8760 50° Northeast 506 582 31,000  Level FlightAware
22:19 44.0160 -68.7120 51° Northeast 507 583 31,000  Level FlightAware
22:20 44.0630 -68.6330 50° Northeast 507 583 31,000  Level FlightAware
22:20 44.1280 -68.5200 51° Northeast 508 585 31,000  Level FlightAware
22:21 44.1740 -68.4380 52° Northeast 508 585 31,000  Level FlightAware
22:21 44.2280 -68.3460 51° Northeast 507 583 31,000  Level FlightAware
22:22 44.2820 -68.2550 50° Northeast 507 583 31,000  Level FlightAware
22:23 44.3330 -68.1660 51° Northeast 507 583 31,000  Level FlightAware
22:23 44.3860 -68.0710 52° Northeast 506 582 31,000  Level FlightAware
22:24 44.4340 -67.9890 51° Northeast 505 581 31,000  Level FlightAware
22:24 44.4860 -67.8970 52° Northeast 506 582 31,000  Level FlightAware
22:25 44.5380 -67.8050 52° Northeast 506 582 31,000  Level FlightAware
22:25 44.5910 -67.7130 51° Northeast 507 583 31,000  Level FlightAware
22:26 44.6380 -67.6300 51° Northeast 508 585 31,000  Level FlightAware
22:27 44.6900 -67.5370 52° Northeast 508 585 31,000  Level FlightAware
22:27 44.7430 -67.4440 51° Northeast 509 586 31,000  Level FlightAware
22:28 44.7940 -67.3530 52° Northeast 509 586 31,000  Level FlightAware
22:28 44.8520 -67.2480 52° Northeast 510 587 31,000  Level FlightAware
22:29 44.9070 -67.1540 50° Northeast 510 587 31,000  Level FlightAware
22:30 44.9650 -67.0700 46° Northeast 509 586 31,000  Level FlightAware
22:30 45.0170 -66.9940 46° Northeast 504 580 31,000  Level FlightAware
22:31 45.0750 -66.9150 44° Northeast 504 580 31,000  Level FlightAware
22:31 45.1100 -66.8660 45° Northeast 505 581 31,000  Level FlightAware
22:32 45.1690 -66.7830 45° Northeast 504 580 31,000  Level FlightAware
22:32 45.2270 -66.7030 44° Northeast 505 581 31,000  Level FlightAware
22:33 45.2860 -66.6170 46° Northeast 506 582 31,000  Level FlightAware
22:34 45.3520 -66.5240 45° Northeast 507 583 31,000  Level FlightAware
22:34 45.4030 -66.4500 46° Northeast 507 583 31,000  Level FlightAware
22:35 45.4620 -66.3660 45° Northeast 508 585 31,000  Level FlightAware
22:35 45.5280 -66.2700 46° Northeast 510 587 31,000  Level FlightAware
22:36 45.5790 -66.1970 45° Northeast 509 586 31,000  Level FlightAware
22:36 45.6390 -66.1100 45° Northeast 511 588 31,000  Level FlightAware
22:37 45.6970 -66.0270 45° Northeast 511 588 31,000  Level FlightAware
22:38 45.7640 -65.9270 46° Northeast 511 588 31,000  Level FlightAware
22:38 45.8060 -65.8660 45° Northeast 512 589 31,000  Level FlightAware
22:39 45.8730 -65.7680 46° Northeast 512 589 31,000  Level FlightAware
22:39 45.9390 -65.6720 45° Northeast 519 597 31,000  Level FlightAware
22:40 45.9590 -65.6420 46° Northeast 519 597 31,000  Level FlightAware
22:40 46.0170 -65.5580 45° Northeast 520 598 31,000  Level FlightAware
22:40 46.0340 -65.5310 48° Northeast 521 600 31,000  Level FlightAware
22:41 46.0910 -65.4510 44° Northeast 521 600 31,000  Level FlightAware
22:42 46.1440 -65.3770 44° Northeast 521 600 31,000  Level FlightAware
22:42 46.1990 -65.3010 44° Northeast 521 600 31,000  Level FlightAware
22:43 46.2530 -65.2250 44° Northeast 521 600 31,000  Level FlightAware
22:43 46.3060 -65.1510 44° Northeast 521 600 31,000  Level FlightAware
22:44 46.3590 -65.0760 44° Northeast 521 600 31,000  Level FlightAware
22:45 46.4140 -65.0000 44° Northeast 521 600 31,000  Level FlightAware
22:45 46.4670 -64.9260 44° Northeast 521 600 31,000  Level FlightAware
22:46 46.5200 -64.8510 44° Northeast 521 600 31,000  Level FlightAware
22:46 46.5730 -64.7770 44° Northeast 521 600 31,000  Level FlightAware
22:47 46.6260 -64.7020 44° Northeast 521 600 31,000  Level FlightAware
22:48 46.6790 -64.6270 44° Northeast 521 600 31,000  Level FlightAware
22:48 46.7320 -64.5530 44° Northeast 521 600 31,000  Level FlightAware
22:49 46.7870 -64.4760 44° Northeast 521 600 31,000  Level FlightAware
22:49 46.8400 -64.4010 44° Northeast 521 600 31,000  Level FlightAware
22:50 46.8930 -64.3260 44° Northeast 521 600 31,000  Level FlightAware
22:51 47.1000 -63.8833 44° Northeast 530 610 31,000  Level Gander Center
22:52 47.1833 -63.7167 54° Northeast 530 610 31,000  Level Gander Center
22:53 47.2833 -63.5500 48° Northeast 520 598 31,000  Level Gander Center
22:54 47.4000 -63.4000 41° Northeast 530 610 31,000  Level Gander Center
22:55 47.5000 -63.2333 48° Northeast 530 610 31,000  Level Gander Center
22:56 47.5833 -63.0833 50° Northeast 530 610 31,000  Level Gander Center
22:57 47.7000 -62.9167 44° Northeast 530 610 31,000  Level Gander Center
22:58 47.7833 -62.7667 50° Northeast 520 598 31,000  Level Gander Center
22:59 47.8833 -62.6000 48° Northeast 520 598 31,000  Level Gander Center
23:00 47.9667 -62.4333 53° Northeast 520 598 31,000  Level Gander Center
23:01 48.0833 -62.2833 41° Northeast 520 598 31,000  Level Gander Center
23:02 48.1833 -62.1167 48° Northeast 520 598 31,000  Level Gander Center
23:03 48.2667 -61.9667 50° Northeast 520 598 31,000  Level Gander Center
23:04 48.3667 -61.7833 51° Northeast 520 598 31,000  Level Gander Center
23:05 48.4500 -61.6333 50° Northeast 510 587 31,000  Level Gander Center
23:06 48.5500 -61.4667 48° Northeast 510 587 31,000  Level Gander Center
23:07 48.6500 -61.3000 48° Northeast 510 587 31,000  Level Gander Center
23:08 48.7333 -61.1333 53° Northeast 510 587 31,000  Level Gander Center
23:09 48.8333 -60.9833 45° Northeast 510 587 31,000  Level Gander Center
23:10 48.9167 -60.8167 53° Northeast 520 598 31,000  Level Gander Center
23:11 49.0167 -60.6500 48° Northeast 520 598 31,000  Level Gander Center
23:12 49.1167 -60.4833 47° Northeast 520 598 31,000  Level Gander Center
23:13 49.2167 -60.3167 47° Northeast 520 598 31,000  Level Gander Center
23:14 49.3000 -60.1333 55° Northeast 530 610 31,000  Level Gander Center
23:15 49.4000 -59.9667 47° Northeast 520 598 31,000  Level Gander Center
23:16 49.4833 -59.7833 55° Northeast 520 598 31,000  Level Gander Center
23:17 49.5667 -59.6333 49° Northeast 530 610 31,000 120 Level Gander Center
23:23 50.1360 -58.5930 49° Northeast 545 627 32,000 120 Climbing FlightAware
23:24 50.1880 -58.4730 56° Northeast 546 628 32,000  Level FlightAware
23:24 50.2560 -58.3190 55° Northeast 546 628 32,000  Level FlightAware
23:25 50.2990 -58.2190 56° Northeast 546 628 32,000  Level FlightAware
23:26 50.3450 -58.1130 56° Northeast 546 628 32,000  Level FlightAware
23:26 50.4070 -57.9670 56° Northeast 549 632 32,000  Level FlightAware
23:27 50.4640 -57.8320 56° Northeast 549 632 32,000  Level FlightAware
23:28 50.5090 -57.7280 56° Northeast 549 632 32,000  Level FlightAware
23:28 50.5540 -57.6240 56° Northeast 549 632 32,000  Level FlightAware
23:29 50.5980 -57.5200 56° Northeast 549 632 32,000  Level FlightAware
23:29 50.6420 -57.4180 56° Northeast 549 632 32,000  Level FlightAware
23:30 50.6850 -57.3160 56° Northeast 549 632 32,000  Level FlightAware
23:31 50.7290 -57.2150 55° Northeast 549 632 32,000  Level FlightAware
23:31 50.7720 -57.1130 56° Northeast 549 632 32,000  Level FlightAware
23:32 50.8180 -57.0050 56° Northeast 549 632 32,000  Level FlightAware
23:32 50.8620 -56.9030 56° Northeast 549 632 32,000  Level FlightAware
23:33 50.9060 -56.7980 56° Northeast 549 632 32,000  Level FlightAware
23:34 50.9500 -56.6960 56° Northeast 549 632 32,000  Level FlightAware
23:34 50.9940 -56.5910 56° Northeast 549 632 32,000  Level FlightAware
23:35 51.0380 -56.4880 56° Northeast 549 632 32,000  Level FlightAware
23:35 51.0810 -56.3860 56° Northeast 549 632 32,000  Level FlightAware
23:36 51.1250 -56.2830 56° Northeast 549 632 32,000  Level FlightAware
23:37 51.3167 -55.6833 56° Northeast 560 644 32,000  Level Gander Center
23:38 51.4000 -55.4833 56° Northeast 570 656 32,000  Level Gander Center
23:39 51.4833 -55.2667 58° Northeast 550 633 32,000  Level Gander Center
23:40 51.5667 -55.0667 56° Northeast 560 644 32,000  Level Gander Center
23:41 51.6500 -54.8667 56° Northeast 560 644 32,000  Level Gander Center
23:42 51.7167 -54.6333 65° Northeast 560 644 32,000  Level Gander Center
23:43 51.8167 -54.4000 55° Northeast 560 644 32,000  Level Gander Center
23:44 51.9000 -54.2000 56° Northeast 560 644 32,000  Level Gander Center
23:45 51.9667 -53.9667 65° Northeast 560 644 32,000  Level Gander Center
23:46 52.0500 -53.7667 56° Northeast 560 644 32,000  Level Gander Center
23:47 52.1167 -53.5333 65° Northeast 570 656 32,000  Level Gander Center
23:48 52.2167 -53.3000 55° Northeast 560 644 32,000  Level Gander Center
23:49 52.2833 -53.0667 65° Northeast 570 656 32,000  Level Gander Center
23:50 52.3333 -52.8667 68° East 570 656 32,000  Level Gander Center
23:51 52.4000 -52.5833 69° East 590 679 32,000  Level Gander Center
23:52 52.4500 -52.3500 71° East 580 667 32,000  Level Gander Center
23:53 52.5167 -52.0333 71° East 570 656 32,000  Level Gander Center
23:54 52.5500 -51.8333 75° East 580 667 32,000  Level Gander Center
23:57 52.6562 -51.4144 67° East  Level FlightAware Approximate
00:04 53.0268 -49.8138 76° East  Level FlightAware Approximate
00:05 53.0609 -49.5743 77° East  Level FlightAware Approximate
00:06 53.0944 -49.3344 77° East  Level FlightAware Approximate
00:07 53.1275 -49.0941 77° East  Level FlightAware Approximate
00:08 53.1601 -48.8535 77° East  Level FlightAware Approximate
00:09 53.1922 -48.6125 77° East  Level FlightAware Approximate
00:10 53.2238 -48.3712 78° East  Level FlightAware Approximate
00:11 53.2549 -48.1295 78° East  Level FlightAware Approximate
00:12 53.2855 -47.8874 78° East  Level FlightAware Approximate
00:13 53.3157 -47.6450 78° East  Level FlightAware Approximate
00:14 53.3453 -47.4023 78° East  Level FlightAware Approximate
00:15 53.3745 -47.1592 79° East  Level FlightAware Approximate
00:16 53.4031 -46.9158 79° East  Level FlightAware Approximate
00:17 53.4313 -46.6721 79° East  Level FlightAware Approximate
00:18 53.4590 -46.4281 79° East  Level FlightAware Approximate
00:19 53.4861 -46.1837 79° East  Level FlightAware Approximate
00:20 53.5128 -45.9390 80° East  Level FlightAware Approximate
00:21 53.5390 -45.6940 80° East  Level FlightAware Approximate
00:22 53.5647 -45.4488 80° East  Level FlightAware Approximate
00:23 53.5898 -45.2032 80° East  Level FlightAware Approximate
00:24 53.6145 -44.9573 80° East  Level FlightAware Approximate
00:25 53.6387 -44.7112 81° East  Level FlightAware Approximate
00:26 53.6623 -44.4647 81° East  Level FlightAware Approximate
00:27 53.6855 -44.2180 81° East  Level FlightAware Approximate
00:28 53.7081 -43.9711 81° East  Level FlightAware Approximate
00:29 53.7303 -43.7239 81° East  Level FlightAware Approximate
00:30 53.7519 -43.4764 81° East  Level FlightAware Approximate
00:31 53.7730 -43.2286 82° East  Level FlightAware Approximate
00:32 53.7936 -42.9806 82° East  Level FlightAware Approximate
00:33 53.8137 -42.7324 82° East  Level FlightAware Approximate
00:34 53.8333 -42.4839 82° East  Level FlightAware Approximate
00:35 53.8523 -42.2352 82° East  Level FlightAware Approximate
00:36 53.8709 -41.9863 83° East  Level FlightAware Approximate
00:37 53.8889 -41.7372 83° East  Level FlightAware Approximate
00:38 53.9065 -41.4879 83° East  Level FlightAware Approximate
00:39 53.9235 -41.2383 83° East  Level FlightAware Approximate
00:40 53.9399 -40.9885 84° East  Level FlightAware Approximate
00:41 53.9559 -40.7382 84° East  Level FlightAware Approximate
00:42 53.9714 -40.4876 84° East  Level FlightAware Approximate
00:43 53.9864 -40.2368 84° East  Level FlightAware Approximate
00:44 54.0020 -39.9862 76° East  Level FlightAware Approximate
00:45 54.0368 -39.7410 76° East  Level FlightAware Approximate
00:46 54.0710 -39.4953 77° East  Level FlightAware Approximate
00:47 54.1048 -39.2493 77° East  Level FlightAware Approximate
00:48 54.1381 -39.0028 77° East  Level FlightAware Approximate
00:49 54.1709 -38.7560 77° East  Level FlightAware Approximate
00:50 54.2031 -38.5087 77° East  Level FlightAware Approximate
00:51 54.2349 -38.2611 78° East  Level FlightAware Approximate
00:52 54.2661 -38.0131 78° East  Level FlightAware Approximate
00:53 54.2969 -37.7647 78° East  Level FlightAware Approximate
00:54 54.3271 -37.5160 78° East  Level FlightAware Approximate
00:55 54.3568 -37.2669 78° East  Level FlightAware Approximate
00:56 54.3852 -37.0172 79° East  Level FlightAware Approximate
00:57 54.4126 -36.7669 79° East  Level FlightAware Approximate
00:58 54.4395 -36.5164 79° East  Level FlightAware Approximate
00:59 54.4659 -36.2655 80° East  Level FlightAware Approximate
01:00 54.4917 -36.0143 80° East  Level FlightAware Approximate
01:01 54.5171 -35.7628 79° East  Level FlightAware Approximate
01:02 54.5441 -35.5116 79° East  Level FlightAware Approximate
01:03 54.5706 -35.2601 80° East  Level FlightAware Approximate
01:04 54.5966 -35.0083 80° East  Level FlightAware Approximate
01:05 54.6221 -34.7562 80° East  Level FlightAware Approximate
01:06 54.6470 -34.5038 80° East  Level FlightAware Approximate
01:07 54.6715 -34.2510 80° East  Level FlightAware Approximate
01:08 54.6953 -33.9980 81° East  Level FlightAware Approximate
01:09 54.7187 -33.7446 81° East  Level FlightAware Approximate
01:10 54.7415 -33.4910 81° East  Level FlightAware Approximate
01:11 54.7638 -33.2371 81° East  Level FlightAware Approximate
01:12 54.7856 -32.9829 81° East  Level FlightAware Approximate
01:13 54.8068 -32.7284 82° East  Level FlightAware Approximate
01:14 54.8275 -32.4737 82° East  Level FlightAware Approximate
01:15 54.8477 -32.2187 82° East  Level FlightAware Approximate
01:16 54.8673 -31.9639 82° East  Level FlightAware Approximate
01:17 54.8864 -31.7089 82° East  Level FlightAware Approximate
01:18 54.9049 -31.4536 83° East  Level FlightAware Approximate
01:19 54.9229 -31.1981 83° East  Level FlightAware Approximate
01:20 54.9404 -30.9424 83° East  Level FlightAware Approximate
01:21 54.9573 -30.6865 83° East  Level FlightAware Approximate
01:22 54.9737 -30.4303 84° East  Level FlightAware Approximate
01:23 54.9896 -30.1739 84° East  Level FlightAware Approximate
01:24 54.9953 -29.9174 96° East  Level FlightAware Approximate
01:25 54.9802 -29.6608 96° East  Level FlightAware Approximate
01:26 54.9646 -29.4045 96° East  Level FlightAware Approximate
01:27 54.9484 -29.1483 96° East  Level FlightAware Approximate
01:28 54.9318 -28.8924 96° East  Level FlightAware Approximate
01:29 54.9145 -28.6367 97° East  Level FlightAware Approximate
01:30 54.8968 -28.3812 97° East  Level FlightAware Approximate
01:31 54.8785 -28.1259 97° East  Level FlightAware Approximate
01:32 54.8596 -27.8709 97° East  Level FlightAware Approximate
01:33 54.8403 -27.6161 97° East  Level FlightAware Approximate
01:34 54.8204 -27.3615 98° East  Level FlightAware Approximate
01:35 54.8000 -27.1072 98° East  Level FlightAware Approximate
01:36 54.7790 -26.8532 98° East  Level FlightAware Approximate
01:37 54.7575 -26.5994 98° East  Level FlightAware Approximate
01:38 54.7355 -26.3459 98° East  Level FlightAware Approximate
01:39 54.7130 -26.0927 99° East  Level FlightAware Approximate
01:40 54.6899 -25.8398 99° East  Level FlightAware Approximate
01:41 54.6663 -25.5872 99° East  Level FlightAware Approximate
01:42 54.6422 -25.3348 99° East  Level FlightAware Approximate
01:43 54.6175 -25.0828 99° East  Level FlightAware Approximate
01:44 54.5924 -24.8311 100° East  Level FlightAware Approximate
01:45 54.5667 -24.5796 100° East  Level FlightAware Approximate
01:46 54.5405 -24.3285 100° East  Level FlightAware Approximate
01:47 54.5137 -24.0778 100° East  Level FlightAware Approximate
01:48 54.4865 -23.8273 101° East  Level FlightAware Approximate
01:49 54.4587 -23.5772 101° East  Level FlightAware Approximate
01:50 54.4304 -23.3275 101° East  Level FlightAware Approximate
01:51 54.4016 -23.0781 101° East  Level FlightAware Approximate
01:52 54.3723 -22.8286 101° East  Level FlightAware Approximate
01:53 54.3424 -22.5794 102° East  Level FlightAware Approximate
01:54 54.3120 -22.3306 102° East  Level FlightAware Approximate
01:55 54.2811 -22.0822 102° East  Level FlightAware Approximate
01:56 54.2497 -21.8342 102° East  Level FlightAware Approximate
01:57 54.2178 -21.5865 102° East  Level FlightAware Approximate
01:58 54.1854 -21.3393 103° East  Level FlightAware Approximate
01:59 54.1524 -21.0924 103° East  Level FlightAware Approximate
02:00 54.1190 -20.8459 103° East  Level FlightAware Approximate
02:01 54.0851 -20.5999 103° East  Level FlightAware Approximate
02:02 54.0506 -20.3542 103° East  Level FlightAware Approximate
02:03 54.0157 -20.1089 104° East  Level FlightAware Approximate
02:04 53.9918 -19.8607 96° East  Level FlightAware Approximate
02:05 53.9765 -19.6099 96° East  Level FlightAware Approximate
02:06 53.9607 -19.3594 96° East  Level FlightAware Approximate
02:07 53.9445 -19.1090 96° East  Level FlightAware Approximate
02:08 53.9276 -18.8589 96° East  Level FlightAware Approximate
02:09 53.9103 -18.6089 97° East  Level FlightAware Approximate
02:10 53.8925 -18.3591 97° East  Level FlightAware Approximate
02:11 53.8741 -18.1096 97° East  Level FlightAware Approximate
02:12 53.8552 -17.8603 97° East  Level FlightAware Approximate
02:13 53.8358 -17.6112 97° East  Level FlightAware Approximate
02:13 53.8580 -14.0920 98° East 553 636 32,000  Level FlightAware
02:14 53.8159 -17.3624 98° East  Level FlightAware Approximate
02:14 53.8350 -13.9490 105° East 553 636 32,000  Level FlightAware
02:14 53.8070 -13.7760 105° East 552 635 32,000  Level FlightAware
02:15 53.7880 -13.6550 105° East 552 635 32,000  Level FlightAware
02:15 53.7690 -13.5350 105° East 552 635 32,000  Level FlightAware
02:16 53.7330 -13.3290 106° East 548 631 32,000  Level FlightAware
02:16 53.7120 -13.2020 106° East 546 628 32,000 60 Level FlightAware
02:17 53.6880 -13.0630 106° East 547 629 32,100 1,020 Climbing FlightAware
02:18 53.6600 -12.8950 106° East 542 624 33,300 1,800 Climbing FlightAware
02:18 53.6390 -12.7750 106° East 538 619 34,200 1,320 Climbing FlightAware
02:19 53.6070 -12.5900 106° East 537 618 35,000 600 Climbing FlightAware
02:20 53.5820 -12.4520 107° East 547 629 35,000  Level FlightAware
02:20 53.5570 -12.3080 106° East 546 628 35,000  Level FlightAware
02:21 53.5310 -12.1620 107° East 546 628 35,000  Level FlightAware
02:21 53.5060 -12.0190 106° East 550 633 35,000  Level FlightAware
02:22 53.4800 -11.8760 107° East 551 634 35,000  Level FlightAware
02:22 53.4540 -11.7330 107° East 552 635 35,000  Level FlightAware
02:23 53.4270 -11.5900 108° East 554 638 35,000  Level FlightAware
02:24 53.3920 -11.3970 107° East 557 641 35,000  Level FlightAware
02:25 53.3610 -11.2370 108° East 557 641 35,000  Level FlightAware
02:25 53.3380 -11.1130 107° East 558 642 35,000  Level FlightAware
02:26 53.3100 -10.9640 107° East 561 646 35,000  Level FlightAware
02:26 53.2780 -10.7980 108° East 564 649 35,000  Level FlightAware
02:27 53.2540 -10.6730 108° East 567 652 35,000  Level FlightAware
02:27 53.2260 -10.5320 108° East 569 655 35,000  Level FlightAware
02:28 53.1970 -10.3810 108° East 571 657 35,000  Level FlightAware
02:29 53.1650 -10.2190 108° East 571 657 35,000  Level FlightAware
02:29 53.1390 -10.0890 108° East 573 659 35,000  Level FlightAware
02:30 53.1110 -9.9510 109° East 573 659 35,000  Level FlightAware
02:30 53.0760 -9.7760 108° East 572 658 35,000  Level FlightAware
02:31 53.0510 -9.6550 109° East 572 658 35,000  Level FlightAware
02:31 53.0200 -9.5040 109° East 573 659 35,000  Level FlightAware
02:32 52.9910 -9.3620 109° East 573 659 35,000  Level FlightAware
02:33 52.9550 -9.1910 109° East 574 661 35,000  Level FlightAware
02:33 52.9290 -9.0670 109° East 574 661 35,000  Level FlightAware
02:34 52.8970 -8.9160 109° East 578 665 35,000  Level FlightAware
02:34 52.8680 -8.7790 109° East 579 666 35,000  Level FlightAware
02:35 52.8347 -8.6227 109° East 488 562 35,000  Level FlightAware UK
02:35 52.8350 -8.6250 109° East 579 666 35,000  Level FlightAware
02:36 52.8040 -8.4830 110° East 579 666 35,000  Level FlightAware
02:36 52.7720 -8.3330 109° East 580 667 35,000  Level FlightAware
02:37 52.7410 -8.1920 110° East 579 666 35,000  Level FlightAware
02:37 52.7080 -8.0430 110° East 578 665 35,000  Level FlightAware
02:38 52.6770 -7.9030 110° East 577 664 35,000  Level FlightAware
02:38 52.6430 -7.7522 110° East 490 564 35,000  Level FlightAware UK
02:38 52.6440 -7.7550 110° East 573 659 35,000  Level FlightAware
02:39 52.6130 -7.6190 111° Southeast 572 658 35,000  Level FlightAware
02:40 52.5800 -7.4730 110° East 570 656 35,000  Level FlightAware
02:40 52.5470 -7.3260 110° East 568 654 35,000  Level FlightAware
02:41 52.5140 -7.1850 111° Southeast 566 651 35,000  Level FlightAware
02:41 52.4810 -7.0440 111° Southeast 566 651 35,000  Level FlightAware
02:42 52.4481 -6.8990 111° Southeast 486 559 35,000  Level FlightAware UK
02:42 52.4490 -6.9030 111° Southeast 566 651 35,000  Level FlightAware
02:43 52.4150 -6.7590 111° Southeast 566 651 35,000  Level FlightAware
02:43 52.3820 -6.6180 111° Southeast 569 655 35,000  Level FlightAware
02:44 52.3510 -6.4860 111° Southeast 570 656 35,000  Level FlightAware
02:44 52.3280 -6.3900 111° Southeast 570 656 35,000  Level FlightAware
02:45 52.2790 -6.1890 112° Southeast 570 656 35,000  Level FlightAware
02:45 52.2476 -6.0575 112° Southeast 488 562 35,000  Level FlightAware UK
02:46 52.2440 -6.0410 112° Southeast 569 655 35,000  Level FlightAware
02:46 52.2130 -5.9140 112° Southeast 568 654 35,000  Level FlightAware
02:47 52.1800 -5.7750 111° Southeast 567 652 35,000  Level FlightAware
02:47 52.1600 -5.6200 102° East 567 652 35,000  Level FlightAware
02:48 52.1430 -5.4820 101° East 567 652 35,000  Level FlightAware
02:48 52.1230 -5.3280 102° East 566 651 35,000  Level FlightAware
02:49 52.1030 -5.1790 102° East 565 650 35,000  Level FlightAware
02:50 52.0820 -5.0390 104° East 563 648 35,000  Level FlightAware
02:50 52.0630 -4.9040 103° East 561 646 35,000  Level FlightAware
02:51 52.0409 -4.7506 103° East 486 559 35,000  Level FlightAware UK
02:51 52.0420 -4.7560 103° East 561 646 35,000  Level FlightAware
02:51 52.0210 -4.6080 103° East 562 647 35,000  Level FlightAware
02:52 52.0000 -4.4610 103° East 562 647 35,000  Level FlightAware
02:52 51.9929 -4.4074 102° East 562 647 35,000  Level FlightAware ADS-B
02:53 51.9750 -4.2846 103° East 563 648 35,000  Level FlightAware ADS-B
02:53 51.9549 -4.1454 103° East 563 648 35,000  Level FlightAware ADS-B
02:54 51.9366 -4.0182 103° East 564 649 35,000  Level FlightAware ADS-B
02:55 51.9068 -3.8150 103° East 486 559 35,000  Level FlightAware UK
02:55 51.8958 -3.7434 103° East 564 649 35,000  Level FlightAware ADS-B
02:55 51.8750 -3.6040 104° East 563 648 35,000  Level FlightAware
02:56 51.8540 -3.4610 103° East 562 647 35,000  Level FlightAware
02:57 51.8330 -3.3270 104° East 563 648 35,000  Level FlightAware
02:57 51.8191 -3.2330 103° East 562 647 35,000  Level FlightAware ADS-B
02:58 51.7985 -3.0988 104° East 562 647 35,000  Level FlightAware ADS-B
02:58 51.7761 -2.9526 104° East 563 648 35,000  Level FlightAware ADS-B
02:59 51.7555 -2.8224 104° East 563 648 35,000  Level FlightAware ADS-B
02:59 51.7359 -2.6963 104° East 562 647 35,000  Level FlightAware ADS-B
03:00 51.7162 -2.5748 105° East 562 647 35,000  Level FlightAware ADS-B
03:00 51.6963 -2.4492 104° East 563 648 35,000  Level FlightAware ADS-B
03:01 51.6766 -2.3280 105° East 563 648 35,000  Level FlightAware ADS-B
03:01 51.6546 -2.1904 104° East 562 647 35,000  Level FlightAware ADS-B
03:02 51.6346 -2.0694 105° East 562 647 35,000  Level FlightAware ADS-B
03:02 51.6129 -1.9402 105° East 563 648 35,000  Level FlightAware ADS-B
03:03 51.5928 -1.8190 105° East 563 648 35,000  Level FlightAware ADS-B
03:03 51.5715 -1.6901 105° East 562 647 35,000  Level FlightAware ADS-B
03:04 51.5511 -1.5695 105° East 560 644 35,000  Level FlightAware ADS-B
03:04 51.5299 -1.4456 105° East 560 644 35,000  Level FlightAware ADS-B
03:05 51.5092 -1.3215 105° East 559 643 35,000  Level FlightAware ADS-B
03:05 51.4904 -1.1970 104° East 558 642 35,000  Level FlightAware ADS-B
03:06 51.4754 -1.0674 100° East 556 640 35,000  Level FlightAware ADS-B
03:07 51.4603 -0.9127 99° East 556 640 35,000  Level FlightAware ADS-B
03:07 51.4486 -0.7825 98° East 555 639 35,000  Level FlightAware ADS-B
03:08 51.4375 -0.6570 98° East 554 638 35,000  Level FlightAware ADS-B
03:08 51.4264 -0.5316 98° East 553 636 35,000  Level FlightAware ADS-B
03:09 51.4150 -0.4021 98° East 553 636 35,000  Level FlightAware ADS-B
03:09 51.4016 -0.2525 98° East 553 636 35,000  Level FlightAware ADS-B
03:10 51.3903 -0.1315 98° East 552 635 35,000  Level FlightAware ADS-B
03:10 51.3756 0.0253 98° East 550 633 35,000  Level FlightAware ADS-B
03:11 51.3623 0.1656 99° East 550 633 35,000  Level FlightAware ADS-B
03:12 51.3496 0.2942 99° East 550 633 35,000  Level FlightAware ADS-B
03:12 51.3358 0.4386 99° East 551 634 35,000  Level FlightAware ADS-B
03:13 51.3238 0.5588 99° East 551 634 35,000  Level FlightAware ADS-B
03:13 51.3115 0.6792 99° East 551 634 35,000  Level FlightAware ADS-B
03:14 51.2990 0.8037 99° East 551 634 35,000  Level FlightAware ADS-B
03:14 51.2865 0.9241 99° East 551 634 35,000  Level FlightAware ADS-B
03:15 51.2727 1.0563 99° East 551 634 35,000  Level FlightAware ADS-B
03:15 51.2581 1.1965 99° East 553 636 35,000  Level FlightAware ADS-B
03:16 51.2357 1.4090 99° East 488 562 35,000  Level FlightAware UK
03:16 51.2360 1.4050 99° East 552 635 35,000  Level FlightAware
03:17 51.2210 1.5410 100° East 552 635 35,000  Level FlightAware
03:17 51.2060 1.6820 100° East 551 634 35,000  Level FlightAware
03:18 51.1900 1.8250 100° East 551 634 35,000  Level FlightAware
03:18 51.1747 1.9615 100° East 492 566 35,000  Level FlightAware UK
03:18 51.1750 1.9610 100° East 550 633 35,000  Level FlightAware
03:19 51.1590 2.1000 100° East 548 631 35,000  Level FlightAware
03:20 51.1430 2.2390 100° East 546 628 35,000  Level FlightAware
03:20 51.1260 2.3850 100° East 546 628 35,000  Level FlightAware
03:21 51.1090 2.5260 101° East 545 627 35,000  Level FlightAware
03:21 51.0900 2.6470 104° East 546 628 35,000  Level FlightAware
03:22 51.0650 2.7884 104° East 488 562 35,000  Level FlightAware UK
03:22 51.0630 2.7940 104° East 548 631 35,000  Level FlightAware
03:23 51.0380 2.9200 107° East 548 631 35,000  Level FlightAware
03:23 51.0110 3.0540 108° East 548 631 35,000  Level FlightAware
03:24 50.9864 3.1790 108° East 488 562 35,000  Level FlightAware UK
03:24 50.9840 3.1880 108° East 548 631 35,000  Level FlightAware
03:24 50.9590 3.3150 107° East 549 632 35,000  Level FlightAware
03:25 50.9304 3.4552 107° East 492 566 35,000  Level FlightAware UK
03:25 50.9310 3.4520 107° East 550 633 35,000  Level FlightAware
03:25 50.9040 3.5830 108° East 550 633 35,000  Level FlightAware
03:26 50.8770 3.7170 108° East 550 633 35,000  Level FlightAware
03:27 50.8490 3.8540 108° East 551 634 35,000  Level FlightAware
03:27 50.8170 4.0030 109° East 549 632 35,000  Level FlightAware
03:28 50.7870 4.1480 108° East 548 631 35,000  Level FlightAware
03:28 50.7600 4.2770 108° East 549 632 35,000  Level FlightAware
03:29 50.7320 4.4060 109° East 548 631 35,000  Level FlightAware
03:30 50.7030 4.5420 109° East 548 631 35,000  Level FlightAware
03:30 50.6731 4.6908 109° East 490 564 35,000  Level FlightAware UK
03:30 50.6730 4.6810 109° East 547 629 35,000  Level FlightAware
03:31 50.6390 4.8360 109° East 546 628 35,000  Level FlightAware
03:32 50.6100 4.9740 108° East 545 627 35,000  Level FlightAware
03:32 50.5790 5.1130 109° East 545 627 35,000  Level FlightAware
03:33 50.5520 5.2320 110° East 545 627 35,000  Level FlightAware
03:33 50.5210 5.3750 109° East 545 627 35,000  Level FlightAware
03:34 50.4920 5.5050 109° East 544 626 35,000  Level FlightAware
03:34 50.4650 5.6240 110° East 545 627 35,000  Level FlightAware
03:35 50.4340 5.7580 110° East 544 626 35,000  Level FlightAware
03:36 50.4050 5.8880 109° East 545 627 35,000  Level FlightAware
03:36 50.3730 6.0250 110° East 546 628 35,000  Level FlightAware
03:37 50.3450 6.1480 110° East 546 628 35,000  Level FlightAware
03:37 50.3150 6.2780 110° East 547 629 35,000  Level FlightAware
03:38 50.2830 6.4110 111° Southeast 546 628 35,000  Level FlightAware
03:39 50.2510 6.5480 110° East 546 628 35,000  Level FlightAware
03:39 50.2230 6.6660 110° East 546 628 35,000 60 Level FlightAware
03:40 50.1920 6.7950 111° Southeast 549 632 35,100 660 Climbing FlightAware
03:40 50.1610 6.9250 110° East 549 632 35,800 1,140 Climbing FlightAware
03:41 50.1310 7.0510 110° East 549 632 36,400 960 Climbing FlightAware
03:41 50.1030 7.1660 111° Southeast 549 632 36,900 480 Climbing FlightAware
03:42 50.0700 7.3020 111° Southeast 549 632 37,000 60 Climbing FlightAware
03:43 50.0380 7.4310 111° Southeast 550 633 37,000  Level FlightAware
03:43 50.0030 7.5750 111° Southeast 550 633 37,000  Level FlightAware
03:44 49.9710 7.7040 111° Southeast 550 633 37,000  Level FlightAware
03:44 49.9390 7.8330 111° Southeast 551 634 37,000  Level FlightAware
03:45 49.9030 7.9760 111° Southeast 550 633 37,000  Level FlightAware
03:46 49.8690 8.1080 112° Southeast 551 634 37,000  Level FlightAware
03:46 49.8360 8.2370 112° Southeast 552 635 37,000  Level FlightAware
03:47 49.8070 8.3460 112° Southeast 555 639 37,000  Level FlightAware
03:47 49.7830 8.4030 123° Southeast 562 647 37,000  Level FlightAware
03:47 49.7430 8.4660 134° Southeast 564 649 37,000  Level FlightAware
03:48 49.6770 8.5300 148° Southeast 562 647 37,000  Level FlightAware
03:48 49.5970 8.5900 154° Southeast 561 646 37,000  Level FlightAware
03:49 49.5150 8.6530 153° Southeast 562 647 37,000  Level FlightAware
03:50 49.4240 8.7150 156° South 560 644 37,000  Level FlightAware
03:50 49.3220 8.7810 157° South 560 644 37,000  Level FlightAware
03:51 49.2120 8.8520 157° South 560 644 37,000  Level FlightAware
03:52 49.1200 8.9120 157° South 559 643 37,000  Level FlightAware
03:52 49.0370 8.9660 157° South 559 643 37,000  Level FlightAware
03:53 48.9520 9.0200 157° South 559 643 37,000  Level FlightAware
03:54 48.8640 9.0770 157° South 560 644 37,000  Level FlightAware
03:54 48.7810 9.1300 157° South 560 644 37,000  Level FlightAware
03:55 48.7070 9.1770 157° South 559 643 37,000  Level FlightAware
03:55 48.6240 9.2300 157° South 559 643 37,000  Level FlightAware
03:56 48.5260 9.2920 157° South 558 642 37,000  Level FlightAware
03:56 48.4490 9.3400 158° South 559 643 37,000  Level FlightAware
03:57 48.3630 9.3940 157° South 559 643 37,000  Level FlightAware
03:58 48.2800 9.4490 156° South 558 642 37,000  Level FlightAware
03:58 48.2020 9.5300 145° Southeast 559 643 37,000  Level FlightAware
03:59 48.1400 9.6070 140° Southeast 560 644 37,000  Level FlightAware
03:59 48.0700 9.6980 139° Southeast 560 644 37,000  Level FlightAware
04:00 47.9970 9.7920 139° Southeast 560 644 37,000  Level FlightAware
04:01 47.9290 9.8810 139° Southeast 560 644 37,000  Level FlightAware
04:01 47.8640 9.9630 140° Southeast 561 646 37,000  Level FlightAware
04:02 47.7910 10.0490 142° Southeast 560 644 37,000  Level FlightAware
04:02 47.7130 10.1370 143° Southeast 559 643 37,000  Level FlightAware
04:03 47.6490 10.2080 143° Southeast 559 643 37,000  Level FlightAware
04:03 47.5760 10.2880 144° Southeast 557 641 37,000  Level FlightAware
04:04 47.4970 10.3740 144° Southeast 557 641 37,000  Level FlightAware
04:05 47.4250 10.4520 144° Southeast 559 643 37,000  Level FlightAware
04:05 47.3370 10.5150 154° Southeast 553 636 37,000  Level FlightAware
04:06 47.2460 10.5780 155° Southeast 552 635 37,000  Level FlightAware
04:07 47.1740 10.6290 154° Southeast 551 634 37,000  Level FlightAware
04:07 47.0900 10.6910 153° Southeast 549 632 37,000  Level FlightAware
04:08 47.0090 10.7490 154° Southeast 545 627 37,000  Level FlightAware
04:08 46.9690 10.7940 142° Southeast 548 631 37,000  Level FlightAware
04:09 46.9020 10.8920 135° Southeast 550 633 37,000  Level FlightAware
04:09 46.8430 10.9790 135° Southeast 549 632 37,000  Level FlightAware
04:10 46.7890 11.0660 132° Southeast 546 628 37,000  Level FlightAware
04:10 46.7270 11.1670 132° Southeast 543 625 37,000  Level FlightAware
04:11 46.6710 11.2570 132° Southeast 537 618 37,000  Level FlightAware
04:11 46.6160 11.3430 133° Southeast 542 624 37,000  Level FlightAware
04:12 46.5640 11.4260 132° Southeast 542 624 37,000  Level FlightAware
04:13 46.5020 11.5220 133° Southeast 542 624 37,000  Level FlightAware
04:13 46.4420 11.6150 133° Southeast 542 624 37,000  Level FlightAware
04:14 46.3740 11.7200 133° Southeast 542 624 37,000  Level FlightAware
04:14 46.3220 11.8000 133° Southeast 543 625 37,000  Level FlightAware
04:15 46.2620 11.8920 133° Southeast 543 625 37,000  Level FlightAware
04:16 46.1920 12.0000 133° Southeast 539 620 37,000  Level FlightAware
04:16 46.1320 12.0900 134° Southeast 545 627 37,000  Level FlightAware
04:17 46.0700 12.1850 133° Southeast 540 621 37,000  Level FlightAware
04:17 46.0240 12.2560 133° Southeast 541 623 37,000  Level FlightAware
04:18 45.9510 12.3670 133° Southeast 542 624 37,000  Level FlightAware
04:18 45.8890 12.4590 134° Southeast 542 624 37,000  Level FlightAware
04:19 45.8360 12.5380 134° Southeast 543 625 37,000  Level FlightAware
04:20 45.7730 12.6320 134° Southeast 544 626 37,000  Level FlightAware
04:20 45.6900 12.7580 133° Southeast 550 633 37,000  Level FlightAware
04:21 45.6310 12.8450 134° Southeast 553 636 37,000  Level FlightAware
04:22 45.5660 12.9400 134° Southeast 553 636 37,000  Level FlightAware
04:22 45.5030 13.0340 134° Southeast 554 638 37,000  Level FlightAware
04:23 45.4400 13.1260 134° Southeast 555 639 37,000  Level FlightAware
04:23 45.3690 13.2310 134° Southeast 555 639 37,000  Level FlightAware
04:24 45.3060 13.3220 135° Southeast 556 640 37,000  Level FlightAware
04:25 45.2440 13.4130 134° Southeast 557 641 37,000  Level FlightAware
04:25 45.1840 13.5000 134° Southeast 557 641 37,000  Level FlightAware
04:26 45.1220 13.5890 135° Southeast 557 641 37,000  Level FlightAware
04:26 45.0670 13.6670 135° Southeast 561 646 37,000  Level FlightAware
04:27 45.0020 13.7610 134° Southeast 563 648 37,000  Level FlightAware
04:27 44.9290 13.8660 134° Southeast 563 648 37,000  Level FlightAware
04:28 44.8650 13.9720 130° Southeast 566 651 37,000  Level FlightAware
04:29 44.8140 14.0670 127° Southeast 567 652 37,000  Level FlightAware
04:29 44.7510 14.1890 126° Southeast 569 655 37,000  Level FlightAware
04:30 44.6990 14.2870 127° Southeast 569 655 37,000  Level FlightAware
04:30 44.6390 14.4000 127° Southeast 571 657 37,000  Level FlightAware
04:31 44.5760 14.5180 127° Southeast 567 652 37,000  Level FlightAware
04:32 44.5200 14.6210 127° Southeast 567 652 37,000  Level FlightAware
04:32 44.4600 14.7310 127° Southeast 568 654 37,000  Level FlightAware
04:33 44.4030 14.8370 127° Southeast 569 655 37,000  Level FlightAware
04:34 44.3350 14.9600 128° Southeast 570 656 37,000  Level FlightAware
04:35 44.2630 15.0960 126° Southeast 569 655 37,000  Level FlightAware
04:35 44.2010 15.2050 128° Southeast 568 654 37,000  Level FlightAware
04:36 44.1410 15.3160 127° Southeast 569 655 37,000  Level FlightAware
04:36 44.0860 15.4130 128° Southeast 570 656 37,000  Level FlightAware
04:37 44.0320 15.5120 127° Southeast 576 663 37,000  Level FlightAware
04:37 43.9740 15.6150 128° Southeast 577 664 37,000  Level FlightAware
04:38 43.9160 15.7200 127° Southeast 578 665 37,000  Level FlightAware
04:39 43.8590 15.8230 127° Southeast 580 667 37,000 60 Level FlightAware
04:39 43.8010 15.9250 128° Southeast 582 670 37,100 600 Climbing FlightAware
04:40 43.7470 16.0190 128° Southeast 577 664 37,700 720 Climbing FlightAware
04:40 43.6900 16.1190 128° Southeast 569 655 38,000 240 Climbing FlightAware
04:41 43.6310 16.2250 128° Southeast 560 644 38,000  Level FlightAware
04:41 43.5730 16.3260 128° Southeast 557 641 38,000  Level FlightAware
04:42 43.5170 16.4240 128° Southeast 554 638 38,000  Level FlightAware
04:43 43.4610 16.5220 128° Southeast 552 635 38,000  Level FlightAware
04:43 43.4070 16.6130 129° Southeast 551 634 38,000  Level FlightAware
04:44 43.3500 16.7130 128° Southeast 550 633 38,000  Level FlightAware
04:44 43.2930 16.8120 128° Southeast 549 632 38,000  Level FlightAware
04:45 43.2440 16.8940 129° Southeast 549 632 38,000  Level FlightAware
04:46 43.1830 17.0010 128° Southeast 549 632 38,000  Level FlightAware
04:46 43.1260 17.0970 129° Southeast 549 632 38,000  Level FlightAware
04:47 43.0710 17.1900 129° Southeast 549 632 38,000  Level FlightAware
04:47 43.0150 17.2850 129° Southeast 548 631 38,000  Level FlightAware
04:48 42.9550 17.3880 128° Southeast 546 628 38,000  Level FlightAware
04:48 42.8990 17.4830 129° Southeast 546 628 38,000  Level FlightAware
04:49 42.8540 17.5580 129° Southeast 546 628 38,000  Level FlightAware
04:50 42.7820 17.6790 129° Southeast 549 632 38,000 60 Level FlightAware
04:50 42.7310 17.7620 130° Southeast 550 633 38,100 600 Climbing FlightAware
04:51 42.6750 17.8560 129° Southeast 549 632 38,700 780 Climbing FlightAware
04:51 42.6210 17.9460 129° Southeast 549 632 39,000 240 Climbing FlightAware
04:52 42.5590 18.0470 130° Southeast 548 631 39,000  Level FlightAware
04:53 42.5070 18.1350 129° Southeast 547 629 39,000  Level FlightAware
04:53 42.4500 18.2270 130° Southeast 543 625 39,000  Level FlightAware
04:54 42.3930 18.3190 130° Southeast 544 626 39,000  Level FlightAware
04:54 42.3380 18.4100 129° Southeast 543 625 39,000  Level FlightAware
04:55 42.2790 18.5070 129° Southeast 544 626 39,000  Level FlightAware
04:55 42.2190 18.6040 130° Southeast 546 628 39,000  Level FlightAware
04:56 42.1720 18.6790 130° Southeast 545 627 39,000  Level FlightAware
04:57 42.1080 18.7810 130° Southeast 545 627 39,000  Level FlightAware
04:57 42.0540 18.8690 130° Southeast 545 627 39,000  Level FlightAware
04:58 41.9980 18.9570 131° Southeast 543 625 39,000  Level FlightAware
04:58 41.9390 19.0530 130° Southeast 540 621 39,000  Level FlightAware
04:59 41.8800 19.1470 130° Southeast 538 619 39,000  Level FlightAware
05:00 41.8300 19.2260 130° Southeast 537 618 39,000  Level FlightAware
05:00 41.7690 19.3150 133° Southeast 533 613 39,000  Level FlightAware
05:01 41.7060 19.3920 138° Southeast 530 610 39,000  Level FlightAware
05:01 41.6430 19.4710 137° Southeast 533 613 39,000  Level FlightAware
05:02 41.5850 19.5470 136° Southeast 534 615 39,000  Level FlightAware
05:02 41.5310 19.6190 135° Southeast 535 616 39,000  Level FlightAware
05:03 41.4640 19.7040 136° Southeast 538 619 39,000  Level FlightAware
05:04 41.4020 19.7840 136° Southeast 539 620 39,000  Level FlightAware
05:04 41.3310 19.8730 137° Southeast 539 620 39,000  Level FlightAware
05:05 41.2700 19.9480 137° Southeast 536 617 39,000  Level FlightAware
05:05 41.2130 20.0200 136° Southeast 534 615 39,000  Level FlightAware
05:06 41.1450 20.1050 137° Southeast 532 612 39,000  Level FlightAware
05:07 41.0660 20.2040 137° Southeast 531 611 39,000  Level FlightAware
05:07 41.0040 20.2820 136° Southeast 531 611 39,000  Level FlightAware
05:08 40.9390 20.3620 137° Southeast 530 610 39,000  Level FlightAware
05:08 40.8760 20.4400 137° Southeast 529 609 39,000  Level FlightAware
05:09 40.8110 20.5210 137° Southeast 530 610 39,000  Level FlightAware
05:10 40.7530 20.5920 137° Southeast 532 612 39,000  Level FlightAware
05:10 40.6900 20.6700 137° Southeast 532 612 39,000  Level FlightAware
05:11 40.6200 20.7550 137° Southeast 532 612 39,000  Level FlightAware
05:11 40.5620 20.8260 137° Southeast 532 612 39,000  Level FlightAware
05:12 40.4980 20.9050 137° Southeast 531 611 39,000  Level FlightAware
05:12 40.4440 20.9710 137° Southeast 532 612 39,000  Level FlightAware
05:13 40.3770 21.0530 137° Southeast 531 611 39,000  Level FlightAware
05:14 40.3070 21.1380 137° Southeast 529 609 39,000  Level FlightAware
05:14 40.2430 21.2160 137° Southeast 529 609 39,000  Level FlightAware
05:15 40.1850 21.2860 137° Southeast 529 609 39,000  Level FlightAware
05:15 40.1190 21.3640 138° Southeast 529 609 39,000  Level FlightAware
05:16 40.0600 21.4350 137° Southeast 529 609 39,000  Level FlightAware
05:17 39.9950 21.5130 137° Southeast 530 610 39,000  Level FlightAware
05:17 39.9290 21.5930 137° Southeast 527 606 39,000  Level FlightAware
05:18 39.8640 21.6700 138° Southeast 525 604 39,000  Level FlightAware
05:18 39.8070 21.7390 137° Southeast 526 605 39,000  Level FlightAware
05:19 39.7440 21.8130 138° Southeast 526 605 39,000  Level FlightAware
05:20 39.6790 21.8900 138° Southeast 525 604 39,000  Level FlightAware
05:20 39.6170 21.9640 137° Southeast 525 604 39,000  Level FlightAware
05:21 39.5630 22.0280 138° Southeast 524 603 39,000  Level FlightAware
05:21 39.4920 22.1100 138° Southeast 524 603 39,000  Level FlightAware
05:22 39.4260 22.1880 138° Southeast 523 602 39,000  Level FlightAware
05:22 39.3700 22.2530 138° Southeast 523 602 39,000  Level FlightAware
05:23 39.3040 22.3300 138° Southeast 523 602 39,000  Level FlightAware
05:24 39.2410 22.4040 138° Southeast 523 602 39,000  Level FlightAware
05:24 39.1860 22.4680 138° Southeast 522 601 39,000  Level FlightAware
05:25 39.1220 22.5410 138° Southeast 521 600 39,000  Level FlightAware
05:25 39.0550 22.6200 138° Southeast 523 602 39,000  Level FlightAware
05:26 38.9890 22.6950 139° Southeast 524 603 39,000  Level FlightAware
05:26 38.9300 22.7630 138° Southeast 525 604 39,000  Level FlightAware
05:27 38.8630 22.8400 138° Southeast 525 604 39,000  Level FlightAware
05:28 38.8040 22.9090 138° Southeast 525 604 39,000  Level FlightAware
05:28 38.7330 22.9900 138° Southeast 527 606 39,000  Level FlightAware
05:29 38.6750 23.0540 139° Southeast 528 608 39,000  Level FlightAware
05:29 38.6100 23.1290 138° Southeast 529 609 39,000  Level FlightAware
05:30 38.5430 23.2030 139° Southeast 529 609 39,000  Level FlightAware
05:31 38.4760 23.2800 138° Southeast 528 608 39,000  Level FlightAware
05:31 38.4160 23.3480 138° Southeast 528 608 39,000  Level FlightAware
05:32 38.3530 23.4180 139° Southeast 527 606 39,000  Level FlightAware
05:32 38.2840 23.4960 138° Southeast 528 608 39,000  Level FlightAware
05:33 38.2200 23.5680 139° Southeast 528 608 39,000  Level FlightAware
05:33 38.1600 23.6340 139° Southeast 530 610 39,000  Level FlightAware
05:34 38.0960 23.7060 138° Southeast 530 610 39,000  Level FlightAware
05:35 38.0260 23.7830 139° Southeast 530 610 39,000  Level FlightAware
05:35 37.9600 23.8570 139° Southeast 530 610 39,000  Level FlightAware
05:36 37.9030 23.9180 140° Southeast 530 610 39,000  Level FlightAware
05:36 37.8360 23.9920 139° Southeast 530 610 39,000  Level FlightAware
05:37 37.7670 24.0690 139° Southeast 531 611 39,000  Level FlightAware
05:38 37.7030 24.1380 140° Southeast 531 611 39,000  Level FlightAware
05:38 37.6420 24.2060 139° Southeast 531 611 39,000  Level FlightAware
05:39 37.5750 24.2830 138° Southeast 534 615 39,000  Level FlightAware
05:39 37.5220 24.3690 128° Southeast 538 619 39,000  Level FlightAware
05:40 37.4720 24.4670 123° Southeast 539 620 39,000  Level FlightAware
05:40 37.4290 24.5520 122° Southeast 539 620 39,000  Level FlightAware
05:41 37.3860 24.6400 122° Southeast 539 620 39,000  Level FlightAware
05:42 37.3340 24.7430 122° Southeast 539 620 39,000  Level FlightAware
05:42 37.2930 24.8250 122° Southeast 539 620 39,000  Level FlightAware
05:43 37.2430 24.9250 122° Southeast 539 620 39,000  Level FlightAware
05:44 37.1880 25.0300 123° Southeast 538 619 39,000  Level FlightAware
05:44 37.1420 25.1220 122° Southeast 538 619 39,000  Level FlightAware
05:45 37.0910 25.2220 123° Southeast 538 619 39,000  Level FlightAware
05:45 37.0460 25.3090 123° Southeast 538 619 39,000  Level FlightAware
05:46 36.9980 25.4030 123° Southeast 538 619 39,000  Level FlightAware
05:46 36.9490 25.4970 123° Southeast 538 619 39,000  Level FlightAware
05:47 36.9060 25.5810 123° Southeast 538 619 39,000  Level FlightAware
05:48 36.8570 25.6750 123° Southeast 539 620 39,000  Level FlightAware
05:48 36.8090 25.7660 123° Southeast 540 621 39,000  Level FlightAware
05:49 36.7590 25.8630 123° Southeast 542 624 39,000  Level FlightAware
05:49 36.7160 25.9440 123° Southeast 543 625 39,000  Level FlightAware
05:50 36.6660 26.0420 122° Southeast 544 626 39,000  Level FlightAware
05:51 36.6170 26.1330 124° Southeast 545 627 39,000  Level FlightAware
05:51 36.5730 26.2210 122° Southeast 546 628 39,000  Level FlightAware
05:52 36.5330 26.3120 119° Southeast 546 628 39,000  Level FlightAware
05:52 36.4900 26.4190 117° Southeast 548 631 39,000  Level FlightAware
05:53 36.4480 26.5230 117° Southeast 548 631 39,000  Level FlightAware
05:53 36.4090 26.6220 116° Southeast 548 631 39,000  Level FlightAware
05:54 36.3720 26.7140 117° Southeast 547 629 39,000  Level FlightAware
05:55 36.3310 26.8150 117° Southeast 547 629 39,000  Level FlightAware
05:55 36.2900 26.9160 117° Southeast 545 627 39,000  Level FlightAware
05:56 36.2340 27.0520 117° Southeast 542 624 39,000  Level FlightAware
05:57 36.1950 27.1460 117° Southeast 542 624 39,000  Level FlightAware
05:57 36.1460 27.2650 117° Southeast 541 623 39,000  Level FlightAware
05:58 36.1050 27.3640 117° Southeast 541 623 39,000  Level FlightAware
05:58 36.0680 27.4540 117° Southeast 541 623 39,000  Level FlightAware
05:59 36.0260 27.5540 117° Southeast 541 623 39,000  Level FlightAware
06:00 35.9860 27.6490 117° Southeast 542 624 39,000  Level FlightAware
06:00 35.9400 27.7420 121° Southeast 541 623 39,000  Level FlightAware
06:01 35.8890 27.8300 126° Southeast 541 623 39,000  Level FlightAware
06:01 35.8370 27.9200 125° Southeast 541 623 39,000  Level FlightAware
06:02 35.7900 28.0000 126° Southeast 542 624 39,000  Level FlightAware
06:03 35.7370 28.0900 126° Southeast 543 625 39,000  Level FlightAware
06:03 35.6840 28.1810 126° Southeast 543 625 39,000  Level FlightAware
06:04 35.6220 28.2850 126° Southeast 543 625 39,000  Level FlightAware
06:04 35.5700 28.3750 125° Southeast 542 624 39,000  Level FlightAware
06:05 35.5160 28.4650 126° Southeast 542 624 39,000  Level FlightAware
06:06 35.4700 28.5420 126° Southeast 544 626 39,000  Level FlightAware
06:06 35.4160 28.6320 126° Southeast 544 626 39,000  Level FlightAware
06:07 35.3610 28.7240 126° Southeast 545 627 39,000  Level FlightAware
06:07 35.3130 28.8040 126° Southeast 545 627 39,000  Level FlightAware
06:08 35.2610 28.8900 127° Southeast 546 628 39,000  Level FlightAware
06:09 35.2070 28.9800 126° Southeast 547 629 39,000  Level FlightAware
06:09 35.1530 29.0700 126° Southeast 548 631 39,000  Level FlightAware
06:10 35.1040 29.1490 127° Southeast 547 629 39,000  Level FlightAware
06:10 35.0630 29.2190 126° Southeast 547 629 39,000  Level FlightAware
06:11 34.9920 29.3360 127° Southeast 549 632 39,000  Level FlightAware
06:12 34.9390 29.4230 127° Southeast 550 633 39,000  Level FlightAware
06:12 34.8860 29.5070 128° Southeast 510 587 39,000  Level FlightAware
06:12 34.8690 29.5370 125° Southeast 546 628 39,000  Level FlightAware
06:13 34.8130 29.6270 127° Southeast 547 629 39,000  Level FlightAware
06:13 34.7670 29.7040 126° Southeast 547 629 39,000  Level FlightAware
06:14 34.7120 29.7940 127° Southeast 548 631 39,000  Level FlightAware
06:15 34.6650 29.8880 121° Southeast 557 641 39,000  Level FlightAware
06:15 34.6100 30.0070 119° Southeast 558 642 39,000  Level FlightAware
06:16 34.5570 30.1160 121° Southeast 558 642 39,000  Level FlightAware
06:17 34.5040 30.2260 120° Southeast 553 636 39,000  Level FlightAware
06:17 34.4580 30.3230 120° Southeast 551 634 39,000  Level FlightAware
06:18 34.4110 30.4190 121° Southeast 549 632 39,000  Level FlightAware
06:18 34.3660 30.5120 120° Southeast 548 631 39,000  Level FlightAware
06:19 34.3120 30.6210 121° Southeast 547 629 39,000  Level FlightAware
06:20 34.2660 30.7130 121° Southeast 547 629 39,000  Level FlightAware
06:20 34.2130 30.8190 121° Southeast 547 629 39,000  Level FlightAware
06:21 34.1680 30.9120 120° Southeast 548 631 39,000  Level FlightAware
06:22 34.1150 31.0180 121° Southeast 550 633 39,000  Level FlightAware
06:22 34.0740 31.1000 121° Southeast 550 633 39,000  Level FlightAware
06:23 34.0290 31.1900 121° Southeast 549 632 39,000  Level FlightAware
06:23 33.9830 31.2820 121° Southeast 549 632 39,000  Level FlightAware
06:24 33.9340 31.3800 121° Southeast 549 632 39,000  Level FlightAware
06:24 33.8870 31.4720 122° Southeast 548 631 39,000  Level FlightAware
06:25 33.8400 31.5660 121° Southeast 544 626 39,000  Level FlightAware
06:26 33.7960 31.6540 121° Southeast 541 623 39,000  Level FlightAware
06:26 33.7500 31.7450 121° Southeast 539 620 39,000  Level FlightAware
06:27 33.7030 31.8370 122° Southeast 538 619 39,000  Level FlightAware
06:27 33.6570 31.9270 122° Southeast 538 619 39,000  Level FlightAware
06:28 33.6100 32.0200 121° Southeast 538 619 39,000  Level FlightAware
06:29 33.5630 32.1120 121° Southeast 537 618 39,000  Level FlightAware
06:29 33.5190 32.1990 121° Southeast 536 617 39,000  Level FlightAware
06:30 33.4770 32.2800 122° Southeast 535 616 39,000  Level FlightAware
06:30 33.4300 32.3690 122° Southeast 535 616 39,000 -600 Level FlightAware
06:31 33.3850 32.4600 121° Southeast 534 615 38,300 -1,680 Descending FlightAware
06:31 33.3390 32.5490 122° Southeast 535 616 37,000 -2,220 Descending FlightAware
06:32 33.3000 32.6210 123° Southeast 530 610 35,800 -2,400 Descending FlightAware
06:33 33.2490 32.7200 122° Southeast 527 606 34,200 -2,220 Descending FlightAware
06:33 33.2060 32.8010 122° Southeast 521 600 33,000 -2,220 Descending FlightAware
06:34 33.1620 32.8880 121° Southeast 514 592 31,700 -2,400 Descending FlightAware
06:34 33.1160 32.9740 123° Southeast 503 579 30,300 -2,340 Descending FlightAware
06:35 33.0690 33.0640 122° Southeast 500 575 28,900 -2,400 Descending FlightAware
06:36 33.0300 33.1380 122° Southeast 493 567 27,600 -2,040 Descending FlightAware
06:36 33.0790 33.0450 302° West 499 574 26,100 -1,080 Descending FlightAware
06:37 33.0400 33.1210 121° Southeast 499 574 26,100 -2,100 Level FlightAware
06:38 32.8730 33.3970 126° Southeast 443 510 23,600 -2,820 Descending FlightAware
06:38 32.8270 33.4750 125° Southeast 240 276 22,400 -1,800 Descending FlightAware
06:39 32.7800 33.5530 126° Southeast 413 475 21,200 -1,920 Descending FlightAware
06:40 32.7400 33.6200 125° Southeast 401 461 20,100 -1,800 Descending FlightAware
06:40 32.7040 33.6820 125° Southeast 390 449 19,100 -1,680 Descending FlightAware
06:41 32.6660 33.7440 126° Southeast 380 437 18,200 -1,500 Descending FlightAware
06:41 32.6340 33.7970 126° Southeast 382 440 17,400 -1,620 Descending FlightAware
06:42 32.6000 33.8520 126° Southeast 392 451 16,500 -1,740 Descending FlightAware
06:42 32.5560 33.9270 125° Southeast 380 437 15,300 -1,680 Descending FlightAware
06:43 32.5240 33.9790 126° Southeast 374 430 14,500 -1,500 Descending FlightAware
06:44 32.4880 34.0390 125° Southeast 364 419 13,600 -1,500 Descending FlightAware
06:44 32.4530 34.0970 126° Southeast 356 410 12,700 -1,500 Descending FlightAware
06:45 32.4220 34.1470 126° Southeast 344 396 11,900 -1,020 Descending FlightAware
06:46 32.3800 34.2170 125° Southeast 332 382 11,300 -420 Descending FlightAware
06:46 32.3530 34.2630 125° Southeast 332 382 11,300  Level FlightAware
06:47 32.3260 34.3080 125° Southeast 332 382 11,300 -2,460 Level FlightAware
06:47 32.2980 34.3490 129° Southeast 291 335 8,900 -3,960 Descending FlightAware
06:48 32.2840 34.3730 125° Southeast 289 333 8,600 -420 Descending FlightAware
06:48 32.2660 34.4020 126° Southeast 289 333 8,600 -1,020 Level FlightAware
06:48 32.2470 34.4370 123° Southeast 295 339 7,800 -1,020 Descending FlightAware
06:49 32.2310 34.4670 122° Southeast 295 339 7,800 -780 Level FlightAware
06:50 32.1880 34.5450 123° Southeast 285 328 6,800 -1,020 Descending FlightAware
06:50 32.1760 34.5670 123° Southeast 275 316 6,600 -720 Descending FlightAware
06:50 32.1660 34.5860 122° Southeast 266 306 6,400 -900 Descending FlightAware
06:51 32.1500 34.6150 123° Southeast 254 292 6,000 -1,080 Descending FlightAware
06:51 32.1350 34.6420 123° Southeast 251 289 5,600 -1,200 Descending FlightAware
06:51 32.1220 34.6640 125° Southeast 248 285 5,200 -720 Descending FlightAware
06:52 32.1080 34.6900 122° Southeast 242 278 5,100 -180 Descending FlightAware
06:52 32.0960 34.7110 124° Southeast 245 282 5,100  Level FlightAware
06:53 32.0810 34.7390 122° Southeast 245 282 5,100 120 Level FlightAware
06:53 32.0720 34.7560 122° Southeast 243 280 5,200  Climbing FlightAware
06:53 32.0570 34.7780 129° Southeast 241 277 5,100 -300 Descending FlightAware
06:53 32.0410 34.7970 135° Southeast 227 261 5,000 -420 Descending FlightAware
06:54 32.0230 34.8180 135° Southeast 211 243 4,800 -420 Descending FlightAware
06:54 32.0120 34.8310 135° Southeast 198 228 4,700 -600 Descending FlightAware
06:55 31.9960 34.8480 138° Southeast 195 224 4,400 -1,080 Descending FlightAware
06:55 31.9840 34.8630 133° Southeast 187 215 4,000 -1,320 Descending FlightAware
06:55 31.9730 34.8930 113° Southeast 185 213 3,200 -1,200 Descending FlightAware
06:56 31.9790 34.9220 76° East 179 206 2,700 -900 Descending FlightAware
06:56 31.9820 34.9360 76° East 177 204 2,500 -900 Descending FlightAware
06:57 31.9910 34.9590 65° Northeast 174 200 2,100 -900 Descending FlightAware
06:57 31.9920 34.9600 40° Northeast 172 198 2,100 -1,080 Level FlightAware
06:57 32.0020 34.9640 19° North 165 190 1,800 -1,140 Descending FlightAware
06:57 32.0160 34.9620 353° North 155 178 1,500 -420 Descending FlightAware
06:58 32.0320 34.9570 345° North 155 178 1,500  Level FlightAware
07:00 32.0095 34.8769 252° West  Level Estimated